KCCR

Buchanan Field Airport

Concord, California, USA
METAR KCCR 201553Z 21010KT 9SM CLR 18/11 A2990 RMK AO2 SLP112 T01780111
Observed Flight Rules
Aug-20 @ 15:53 UTC (31 minutes ago) Visual Flight Rules
Wind Visibility Clouds
210° at 10 knots 9 miles
  • Clear skies
Temperatures Readings
Current 18°C / 64°F
Dewpoint 11°C / 52°F
Humidity 64%
Altimeter 29.9" Hg
Pressure 1011.2 hPa
Elevation 11
METAR KCCR 201553Z 21010KT 9SM CLR 18/11 A2990 RMK AO2 SLP112 T01780111
Observed Flight Rules
Aug-20 @ 15:53 UTC
(31 minutes ago)
VFR
Wind Visibility
210° at 10 knots 9 miles
Clouds
  • Clear skies
Temperature Dewpoint
18°C / 64°F 11°C / 52°F
Humidity Altimeter Pressure
64% 29.9" Hg 1011.2 hPa